CheckWX is a tool to help pilots better visualize weather data.  It is not intended as a substitute for an official pre-flight weather briefing.

09:17:21 UTC

KMWT METAR
Mount Ida Airport
Mount Ida, Arkansas, USA
Current

5 hours ago

KMWT 210353Z AUTO 14006KT 10SM SCT100 24/21 A3009 RMK AO2 SLP179 T02440211
Observed
Sep-21 @ 03:53 UTC
Wind
  • 140° at 6 KTS
Visibility
10 SM
Flight Rules
VFR
Cloud Levels
  • Scattered at 10,000' AGL
Temperature
24°C / 75°F
Dewpoint
21°C / 70°F
Humidity
83%
Altimeter
30.09" Hg
Pressure
1018.92 hPa
Previous

6 hours ago

KMWT 210253Z AUTO VRB06KT 10SM BKN080 BKN100 24/22 A3008 RMK AO2 SLP177 T02440217 53009
Observed
Sep-21 @ 02:53 UTC
Wind
  • Variable at 6 KTS
Visibility
10 SM
Flight Rules
VFR
Cloud Levels
  • Broken at 8,000' AGL
  • Broken at 10,000' AGL
Temperature
24°C / 75°F
Dewpoint
22°C / 72°F
Humidity
89%
Altimeter
30.08" Hg
Pressure
1018.62 hPa
Previous

7 hours ago

KMWT 210216Z AUTO 14006KT 10SM SCT015 BKN070 OVC120 24/22 A3007 RMK AO2 T02440222
Observed
Sep-21 @ 02:16 UTC
Wind
  • 140° at 6 KTS
Visibility
10 SM
Flight Rules
VFR
Cloud Levels
  • Scattered at 1,500' AGL
  • Broken at 7,000' AGL
  • Overcast at 12,000' AGL
Temperature
24°C / 75°F
Dewpoint
22°C / 72°F
Humidity
89%
Altimeter
30.07" Hg
Pressure
1018.32 hPa